sensor_id;sensor_type;location;lat;lon;timestamp;P1;durP1;ratioP1;P2;durP2;ratioP2
45043;SDS011;30784;48.490;9.688;2023-04-15T00:02:20;17.58;;;5.85;;
45043;SDS011;30784;48.490;9.688;2023-04-15T00:04:46;19.48;;;7.65;;
45043;SDS011;30784;48.490;9.688;2023-04-15T00:07:12;18.77;;;7.47;;
45043;SDS011;30784;48.490;9.688;2023-04-15T00:09:38;13.63;;;5.30;;
45043;SDS011;30784;48.490;9.688;2023-04-15T00:12:08;15.07;;;4.70;;
45043;SDS011;30784;48.490;9.688;2023-04-15T00:14:34;9.02;;;3.00;;
45043;SDS011;30784;48.490;9.688;2023-04-15T00:17:00;6.70;;;2.00;;
45043;SDS011;30784;48.490;9.688;2023-04-15T00:19:27;6.80;;;2.20;;
45043;SDS011;30784;48.490;9.688;2023-04-15T00:21:53;7.43;;;2.25;;
45043;SDS011;30784;48.490;9.688;2023-04-15T00:24:19;7.53;;;1.90;;
45043;SDS011;30784;48.490;9.688;2023-04-15T00:26:44;7.35;;;2.08;;
45043;SDS011;30784;48.490;9.688;2023-04-15T00:29:10;8.35;;;1.98;;
45043;SDS011;30784;48.490;9.688;2023-04-15T00:31:36;7.47;;;2.00;;
45043;SDS011;30784;48.490;9.688;2023-04-15T00:34:01;6.45;;;2.20;;
45043;SDS011;30784;48.490;9.688;2023-04-15T00:36:27;13.40;;;5.30;;
45043;SDS011;30784;48.490;9.688;2023-04-15T00:38:53;13.13;;;4.95;;
45043;SDS011;30784;48.490;9.688;2023-04-15T00:41:18;10.10;;;3.83;;
45043;SDS011;30784;48.490;9.688;2023-04-15T00:43:44;10.45;;;3.35;;
45043;SDS011;30784;48.490;9.688;2023-04-15T00:46:11;8.13;;;2.60;;
45043;SDS011;30784;48.490;9.688;2023-04-15T00:48:39;8.95;;;2.20;;
45043;SDS011;30784;48.490;9.688;2023-04-15T00:51:06;7.10;;;1.95;;
45043;SDS011;30784;48.490;9.688;2023-04-15T00:53:32;9.65;;;2.83;;
45043;SDS011;30784;48.490;9.688;2023-04-15T00:55:58;7.15;;;1.80;;
45043;SDS011;30784;48.490;9.688;2023-04-15T00:58:23;5.85;;;1.73;;
45043;SDS011;30784;48.490;9.688;2023-04-15T01:00:50;6.00;;;1.63;;
45043;SDS011;30784;48.490;9.688;2023-04-15T01:03:18;6.25;;;1.58;;
45043;SDS011;30784;48.490;9.688;2023-04-15T01:05:45;6.10;;;1.67;;
45043;SDS011;30784;48.490;9.688;2023-04-15T01:08:11;6.72;;;1.95;;
45043;SDS011;30784;48.490;9.688;2023-04-15T01:10:37;6.22;;;1.88;;
45043;SDS011;30784;48.490;9.688;2023-04-15T01:13:03;7.15;;;2.20;;
45043;SDS011;30784;48.490;9.688;2023-04-15T01:15:29;22.58;;;12.98;;
45043;SDS011;30784;48.490;9.688;2023-04-15T01:17:56;18.88;;;9.82;;
45043;SDS011;30784;48.490;9.688;2023-04-15T01:20:23;10.38;;;4.47;;
45043;SDS011;30784;48.490;9.688;2023-04-15T01:22:48;9.15;;;3.70;;
45043;SDS011;30784;48.490;9.688;2023-04-15T01:25:18;7.68;;;2.70;;
45043;SDS011;30784;48.490;9.688;2023-04-15T01:27:51;7.40;;;2.40;;
45043;SDS011;30784;48.490;9.688;2023-04-15T01:30:16;6.13;;;2.00;;
45043;SDS011;30784;48.490;9.688;2023-04-15T01:32:42;7.32;;;1.90;;
45043;SDS011;30784;48.490;9.688;2023-04-15T01:35:08;6.55;;;1.52;;
45043;SDS011;30784;48.490;9.688;2023-04-15T01:37:33;6.43;;;1.60;;
45043;SDS011;30784;48.490;9.688;2023-04-15T01:40:00;4.65;;;1.50;;
45043;SDS011;30784;48.490;9.688;2023-04-15T01:42:27;6.57;;;1.48;;
45043;SDS011;30784;48.490;9.688;2023-04-15T01:44:52;6.63;;;1.77;;
45043;SDS011;30784;48.490;9.688;2023-04-15T01:47:18;6.03;;;2.05;;
45043;SDS011;30784;48.490;9.688;2023-04-15T01:49:44;8.52;;;2.53;;
45043;SDS011;30784;48.490;9.688;2023-04-15T01:52:10;7.78;;;2.20;;
45043;SDS011;30784;48.490;9.688;2023-04-15T01:54:35;7.13;;;1.92;;
45043;SDS011;30784;48.490;9.688;2023-04-15T01:57:01;7.72;;;1.77;;
45043;SDS011;30784;48.490;9.688;2023-04-15T01:59:27;7.00;;;1.55;;
45043;SDS011;30784;48.490;9.688;2023-04-15T02:01:53;4.93;;;1.60;;
45043;SDS011;30784;48.490;9.688;2023-04-15T02:04:19;5.30;;;1.52;;
45043;SDS011;30784;48.490;9.688;2023-04-15T02:06:44;5.80;;;1.60;;
45043;SDS011;30784;48.490;9.688;2023-04-15T02:09:10;6.93;;;1.70;;
45043;SDS011;30784;48.490;9.688;2023-04-15T02:11:36;6.82;;;1.80;;
45043;SDS011;30784;48.490;9.688;2023-04-15T02:14:02;6.32;;;1.70;;
45043;SDS011;30784;48.490;9.688;2023-04-15T02:16:31;5.72;;;1.60;;
45043;SDS011;30784;48.490;9.688;2023-04-15T02:18:58;6.43;;;1.50;;
45043;SDS011;30784;48.490;9.688;2023-04-15T02:21:27;6.95;;;1.70;;
45043;SDS011;30784;48.490;9.688;2023-04-15T02:23:53;6.32;;;1.80;;
45043;SDS011;30784;48.490;9.688;2023-04-15T02:26:19;6.63;;;1.80;;
45043;SDS011;30784;48.490;9.688;2023-04-15T02:28:45;8.07;;;2.60;;
45043;SDS011;30784;48.490;9.688;2023-04-15T02:31:11;12.00;;;5.25;;
45043;SDS011;30784;48.490;9.688;2023-04-15T02:33:36;11.32;;;4.22;;
45043;SDS011;30784;48.490;9.688;2023-04-15T02:36:02;9.43;;;3.03;;
45043;SDS011;30784;48.490;9.688;2023-04-15T02:38:28;8.02;;;2.47;;
45043;SDS011;30784;48.490;9.688;2023-04-15T02:40:55;7.47;;;2.28;;
45043;SDS011;30784;48.490;9.688;2023-04-15T02:43:21;7.63;;;2.03;;
45043;SDS011;30784;48.490;9.688;2023-04-15T02:45:47;11.30;;;3.65;;
45043;SDS011;30784;48.490;9.688;2023-04-15T02:48:13;12.63;;;3.47;;
45043;SDS011;30784;48.490;9.688;2023-04-15T02:50:40;9.38;;;3.53;;
45043;SDS011;30784;48.490;9.688;2023-04-15T02:53:06;8.00;;;2.90;;
45043;SDS011;30784;48.490;9.688;2023-04-15T02:55:32;7.85;;;2.30;;
45043;SDS011;30784;48.490;9.688;2023-04-15T02:57:57;8.45;;;2.13;;
45043;SDS011;30784;48.490;9.688;2023-04-15T03:03:46;10.90;;;3.50;;
45043;SDS011;30784;48.490;9.688;2023-04-15T03:06:12;9.77;;;3.20;;
45043;SDS011;30784;48.490;9.688;2023-04-15T03:08:37;8.68;;;3.00;;
45043;SDS011;30784;48.490;9.688;2023-04-15T03:11:03;7.07;;;2.55;;
45043;SDS011;30784;48.490;9.688;2023-04-15T03:13:29;7.25;;;2.20;;
45043;SDS011;30784;48.490;9.688;2023-04-15T03:15:54;7.28;;;2.05;;
45043;SDS011;30784;48.490;9.688;2023-04-15T03:18:20;7.03;;;2.08;;
45043;SDS011;30784;48.490;9.688;2023-04-15T03:20:45;6.28;;;1.67;;
45043;SDS011;30784;48.490;9.688;2023-04-15T03:23:11;7.15;;;1.80;;
45043;SDS011;30784;48.490;9.688;2023-04-15T03:25:36;6.07;;;1.90;;
45043;SDS011;30784;48.490;9.688;2023-04-15T03:28:02;5.38;;;1.60;;
45043;SDS011;30784;48.490;9.688;2023-04-15T03:30:28;6.85;;;1.92;;
45043;SDS011;30784;48.490;9.688;2023-04-15T03:32:53;7.68;;;1.90;;
45043;SDS011;30784;48.490;9.688;2023-04-15T03:35:19;7.65;;;1.77;;
45043;SDS011;30784;48.490;9.688;2023-04-15T03:37:44;6.20;;;1.55;;
45043;SDS011;30784;48.490;9.688;2023-04-15T03:40:10;5.53;;;1.40;;
45043;SDS011;30784;48.490;9.688;2023-04-15T03:42:36;7.93;;;1.98;;
45043;SDS011;30784;48.490;9.688;2023-04-15T03:45:02;8.68;;;2.55;;
45043;SDS011;30784;48.490;9.688;2023-04-15T03:47:28;5.68;;;2.03;;
45043;SDS011;30784;48.490;9.688;2023-04-15T03:49:53;7.15;;;1.88;;
45043;SDS011;30784;48.490;9.688;2023-04-15T03:52:19;7.65;;;1.85;;
45043;SDS011;30784;48.490;9.688;2023-04-15T03:54:45;6.28;;;1.60;;
45043;SDS011;30784;48.490;9.688;2023-04-15T03:57:10;7.22;;;1.85;;
45043;SDS011;30784;48.490;9.688;2023-04-15T03:59:36;8.75;;;2.80;;
45043;SDS011;30784;48.490;9.688;2023-04-15T04:02:02;14.40;;;4.22;;
45043;SDS011;30784;48.490;9.688;2023-04-15T04:04:27;10.18;;;2.90;;
45043;SDS011;30784;48.490;9.688;2023-04-15T04:06:53;5.88;;;2.10;;
45043;SDS011;30784;48.490;9.688;2023-04-15T04:09:18;9.60;;;3.90;;
45043;SDS011;30784;48.490;9.688;2023-04-15T04:11:44;8.15;;;2.17;;
45043;SDS011;30784;48.490;9.688;2023-04-15T04:14:09;7.25;;;2.05;;
45043;SDS011;30784;48.490;9.688;2023-04-15T04:16:35;6.60;;;1.67;;
45043;SDS011;30784;48.490;9.688;2023-04-15T04:19:01;6.40;;;1.65;;
45043;SDS011;30784;48.490;9.688;2023-04-15T04:21:26;6.40;;;1.40;;
45043;SDS011;30784;48.490;9.688;2023-04-15T04:23:52;6.55;;;2.17;;
45043;SDS011;30784;48.490;9.688;2023-04-15T04:26:17;6.63;;;2.25;;
45043;SDS011;30784;48.490;9.688;2023-04-15T04:28:43;9.05;;;2.67;;
45043;SDS011;30784;48.490;9.688;2023-04-15T04:31:09;7.15;;;2.20;;
45043;SDS011;30784;48.490;9.688;2023-04-15T04:33:35;7.00;;;2.03;;
45043;SDS011;30784;48.490;9.688;2023-04-15T04:36:00;5.93;;;1.92;;
45043;SDS011;30784;48.490;9.688;2023-04-15T04:38:26;5.05;;;1.52;;
45043;SDS011;30784;48.490;9.688;2023-04-15T04:40:51;6.63;;;1.67;;
45043;SDS011;30784;48.490;9.688;2023-04-15T04:43:17;4.97;;;1.60;;
45043;SDS011;30784;48.490;9.688;2023-04-15T04:45:43;6.18;;;1.60;;
45043;SDS011;30784;48.490;9.688;2023-04-15T04:48:08;5.43;;;1.63;;
45043;SDS011;30784;48.490;9.688;2023-04-15T04:50:34;4.72;;;1.50;;
45043;SDS011;30784;48.490;9.688;2023-04-15T04:53:00;5.63;;;1.30;;
45043;SDS011;30784;48.490;9.688;2023-04-15T04:55:26;6.50;;;1.50;;
45043;SDS011;30784;48.490;9.688;2023-04-15T04:57:52;6.05;;;2.05;;
45043;SDS011;30784;48.490;9.688;2023-04-15T05:00:17;7.07;;;2.30;;
45043;SDS011;30784;48.490;9.688;2023-04-15T05:02:43;6.95;;;2.28;;
45043;SDS011;30784;48.490;9.688;2023-04-15T05:05:09;7.40;;;2.40;;
45043;SDS011;30784;48.490;9.688;2023-04-15T05:07:35;8.20;;;2.10;;
45043;SDS011;30784;48.490;9.688;2023-04-15T05:10:02;7.63;;;1.90;;
45043;SDS011;30784;48.490;9.688;2023-04-15T05:12:27;7.30;;;1.98;;
45043;SDS011;30784;48.490;9.688;2023-04-15T05:14:53;8.27;;;2.45;;
45043;SDS011;30784;48.490;9.688;2023-04-15T05:17:19;9.88;;;2.53;;
45043;SDS011;30784;48.490;9.688;2023-04-15T05:19:44;8.02;;;2.30;;
45043;SDS011;30784;48.490;9.688;2023-04-15T05:22:10;8.35;;;2.60;;
45043;SDS011;30784;48.490;9.688;2023-04-15T05:24:35;8.32;;;2.13;;
45043;SDS011;30784;48.490;9.688;2023-04-15T05:27:01;9.05;;;2.97;;
45043;SDS011;30784;48.490;9.688;2023-04-15T05:29:26;9.43;;;3.60;;
45043;SDS011;30784;48.490;9.688;2023-04-15T05:31:52;9.77;;;4.10;;
45043;SDS011;30784;48.490;9.688;2023-04-15T05:34:17;12.15;;;5.53;;
45043;SDS011;30784;48.490;9.688;2023-04-15T05:36:43;12.90;;;6.28;;
45043;SDS011;30784;48.490;9.688;2023-04-15T05:39:08;11.48;;;5.30;;
45043;SDS011;30784;48.490;9.688;2023-04-15T05:41:34;10.27;;;3.92;;
45043;SDS011;30784;48.490;9.688;2023-04-15T05:43:59;9.35;;;3.97;;
45043;SDS011;30784;48.490;9.688;2023-04-15T05:46:26;7.90;;;2.90;;
45043;SDS011;30784;48.490;9.688;2023-04-15T05:48:51;9.75;;;2.67;;
45043;SDS011;30784;48.490;9.688;2023-04-15T05:51:17;16.23;;;8.18;;
45043;SDS011;30784;48.490;9.688;2023-04-15T05:53:42;29.27;;;16.90;;
45043;SDS011;30784;48.490;9.688;2023-04-15T05:56:09;27.63;;;17.95;;
45043;SDS011;30784;48.490;9.688;2023-04-15T05:58:35;24.80;;;15.13;;
45043;SDS011;30784;48.490;9.688;2023-04-15T06:01:01;21.52;;;14.65;;
45043;SDS011;30784;48.490;9.688;2023-04-15T06:03:27;13.57;;;8.18;;
45043;SDS011;30784;48.490;9.688;2023-04-15T06:05:53;13.77;;;6.20;;
45043;SDS011;30784;48.490;9.688;2023-04-15T06:08:19;14.18;;;6.15;;
45043;SDS011;30784;48.490;9.688;2023-04-15T06:14:07;11.70;;;5.35;;
45043;SDS011;30784;48.490;9.688;2023-04-15T06:16:33;8.85;;;3.40;;
45043;SDS011;30784;48.490;9.688;2023-04-15T06:19:00;8.32;;;3.00;;
45043;SDS011;30784;48.490;9.688;2023-04-15T06:21:26;7.50;;;2.20;;
45043;SDS011;30784;48.490;9.688;2023-04-15T06:23:52;6.93;;;2.00;;
45043;SDS011;30784;48.490;9.688;2023-04-15T06:26:18;6.05;;;1.77;;
45043;SDS011;30784;48.490;9.688;2023-04-15T06:28:43;7.43;;;1.65;;
45043;SDS011;30784;48.490;9.688;2023-04-15T06:31:09;7.28;;;2.20;;
45043;SDS011;30784;48.490;9.688;2023-04-15T06:33:35;6.22;;;1.70;;
45043;SDS011;30784;48.490;9.688;2023-04-15T06:36:00;6.90;;;1.50;;
45043;SDS011;30784;48.490;9.688;2023-04-15T06:38:26;5.85;;;1.90;;
45043;SDS011;30784;48.490;9.688;2023-04-15T06:40:51;8.25;;;2.05;;
45043;SDS011;30784;48.490;9.688;2023-04-15T06:43:17;7.43;;;1.80;;
45043;SDS011;30784;48.490;9.688;2023-04-15T06:45:43;6.00;;;1.60;;
45043;SDS011;30784;48.490;9.688;2023-04-15T06:48:09;5.10;;;1.40;;
45043;SDS011;30784;48.490;9.688;2023-04-15T06:50:35;6.80;;;1.48;;
45043;SDS011;30784;48.490;9.688;2023-04-15T06:53:01;5.65;;;1.30;;
45043;SDS011;30784;48.490;9.688;2023-04-15T06:55:27;7.72;;;1.50;;
45043;SDS011;30784;48.490;9.688;2023-04-15T06:57:52;4.95;;;1.10;;
45043;SDS011;30784;48.490;9.688;2023-04-15T07:00:18;4.90;;;1.20;;
45043;SDS011;30784;48.490;9.688;2023-04-15T07:02:44;5.85;;;1.25;;
45043;SDS011;30784;48.490;9.688;2023-04-15T07:05:10;5.45;;;1.42;;
45043;SDS011;30784;48.490;9.688;2023-04-15T07:07:36;6.53;;;1.52;;
45043;SDS011;30784;48.490;9.688;2023-04-15T07:10:02;5.38;;;1.60;;
45043;SDS011;30784;48.490;9.688;2023-04-15T07:12:28;7.80;;;2.00;;
45043;SDS011;30784;48.490;9.688;2023-04-15T07:14:53;6.80;;;1.60;;
45043;SDS011;30784;48.490;9.688;2023-04-15T07:17:19;7.97;;;1.95;;
45043;SDS011;30784;48.490;9.688;2023-04-15T07:19:45;7.75;;;1.60;;
45043;SDS011;30784;48.490;9.688;2023-04-15T07:22:11;5.13;;;1.40;;
45043;SDS011;30784;48.490;9.688;2023-04-15T07:24:37;7.63;;;1.90;;
45043;SDS011;30784;48.490;9.688;2023-04-15T07:27:02;5.50;;;1.58;;
45043;SDS011;30784;48.490;9.688;2023-04-15T07:29:28;6.03;;;1.65;;
45043;SDS011;30784;48.490;9.688;2023-04-15T07:31:53;7.93;;;1.90;;
45043;SDS011;30784;48.490;9.688;2023-04-15T07:34:21;4.57;;;1.60;;
45043;SDS011;30784;48.490;9.688;2023-04-15T07:36:46;7.28;;;1.70;;
45043;SDS011;30784;48.490;9.688;2023-04-15T07:39:16;4.60;;;1.40;;
45043;SDS011;30784;48.490;9.688;2023-04-15T07:41:42;7.05;;;2.20;;
45043;SDS011;30784;48.490;9.688;2023-04-15T07:44:07;7.20;;;2.00;;
45043;SDS011;30784;48.490;9.688;2023-04-15T07:46:33;7.07;;;2.03;;
45043;SDS011;30784;48.490;9.688;2023-04-15T07:48:59;7.15;;;2.30;;
45043;SDS011;30784;48.490;9.688;2023-04-15T07:51:25;7.18;;;2.15;;
45043;SDS011;30784;48.490;9.688;2023-04-15T07:53:50;7.00;;;1.85;;
45043;SDS011;30784;48.490;9.688;2023-04-15T07:56:16;5.18;;;1.52;;
45043;SDS011;30784;48.490;9.688;2023-04-15T07:58:42;5.78;;;1.65;;
45043;SDS011;30784;48.490;9.688;2023-04-15T08:01:07;5.45;;;1.42;;
45043;SDS011;30784;48.490;9.688;2023-04-15T08:03:33;5.63;;;1.38;;
45043;SDS011;30784;48.490;9.688;2023-04-15T08:05:59;6.07;;;1.58;;
45043;SDS011;30784;48.490;9.688;2023-04-15T08:08:24;4.75;;;1.48;;
45043;SDS011;30784;48.490;9.688;2023-04-15T08:10:50;4.93;;;1.23;;
45043;SDS011;30784;48.490;9.688;2023-04-15T08:13:16;6.07;;;1.30;;
45043;SDS011;30784;48.490;9.688;2023-04-15T08:15:42;5.85;;;1.70;;
45043;SDS011;30784;48.490;9.688;2023-04-15T08:18:07;5.30;;;1.40;;
45043;SDS011;30784;48.490;9.688;2023-04-15T08:20:33;3.85;;;1.23;;
45043;SDS011;30784;48.490;9.688;2023-04-15T08:22:59;4.25;;;1.38;;
45043;SDS011;30784;48.490;9.688;2023-04-15T08:25:24;4.45;;;1.20;;
45043;SDS011;30784;48.490;9.688;2023-04-15T08:27:51;5.63;;;1.40;;
45043;SDS011;30784;48.490;9.688;2023-04-15T08:30:19;4.50;;;1.40;;
45043;SDS011;30784;48.490;9.688;2023-04-15T08:32:45;5.05;;;1.40;;
45043;SDS011;30784;48.490;9.688;2023-04-15T08:35:11;5.38;;;1.40;;
45043;SDS011;30784;48.490;9.688;2023-04-15T08:37:37;5.55;;;1.50;;
45043;SDS011;30784;48.490;9.688;2023-04-15T08:40:03;5.25;;;1.65;;
45043;SDS011;30784;48.490;9.688;2023-04-15T08:42:30;5.65;;;1.50;;
45043;SDS011;30784;48.490;9.688;2023-04-15T08:45:00;3.85;;;1.23;;
45043;SDS011;30784;48.490;9.688;2023-04-15T08:47:29;5.38;;;1.50;;
45043;SDS011;30784;48.490;9.688;2023-04-15T08:49:58;4.65;;;1.42;;
45043;SDS011;30784;48.490;9.688;2023-04-15T08:52:25;4.38;;;1.42;;
45043;SDS011;30784;48.490;9.688;2023-04-15T08:54:51;4.65;;;1.10;;
45043;SDS011;30784;48.490;9.688;2023-04-15T08:57:23;4.47;;;1.42;;
45043;SDS011;30784;48.490;9.688;2023-04-15T08:59:54;5.07;;;1.20;;
45043;SDS011;30784;48.490;9.688;2023-04-15T09:02:21;4.78;;;1.30;;
45043;SDS011;30784;48.490;9.688;2023-04-15T09:04:48;5.63;;;1.35;;
45043;SDS011;30784;48.490;9.688;2023-04-15T09:07:14;4.40;;;1.20;;
45043;SDS011;30784;48.490;9.688;2023-04-15T09:09:39;5.13;;;1.60;;
45043;SDS011;30784;48.490;9.688;2023-04-15T09:12:06;3.92;;;1.23;;
45043;SDS011;30784;48.490;9.688;2023-04-15T09:14:32;6.10;;;1.30;;
45043;SDS011;30784;48.490;9.688;2023-04-15T09:16:59;4.35;;;1.00;;
45043;SDS011;30784;48.490;9.688;2023-04-15T09:19:26;4.07;;;1.10;;
45043;SDS011;30784;48.490;9.688;2023-04-15T09:21:52;4.75;;;1.27;;
45043;SDS011;30784;48.490;9.688;2023-04-15T09:24:19;5.53;;;1.50;;
45043;SDS011;30784;48.490;9.688;2023-04-15T09:26:45;4.80;;;1.40;;
45043;SDS011;30784;48.490;9.688;2023-04-15T09:29:11;5.25;;;1.65;;
45043;SDS011;30784;48.490;9.688;2023-04-15T09:31:40;4.35;;;1.50;;
45043;SDS011;30784;48.490;9.688;2023-04-15T09:34:06;5.95;;;2.00;;
45043;SDS011;30784;48.490;9.688;2023-04-15T09:39:17;5.93;;;1.80;;
45043;SDS011;30784;48.490;9.688;2023-04-15T09:41:43;5.28;;;1.40;;
45043;SDS011;30784;48.490;9.688;2023-04-15T09:44:24;4.85;;;1.40;;
45043;SDS011;30784;48.490;9.688;2023-04-15T09:46:50;6.22;;;1.67;;
45043;SDS011;30784;48.490;9.688;2023-04-15T09:49:16;4.43;;;1.40;;
45043;SDS011;30784;48.490;9.688;2023-04-15T09:51:45;7.00;;;1.60;;
45043;SDS011;30784;48.490;9.688;2023-04-15T09:54:24;5.10;;;1.25;;
45043;SDS011;30784;48.490;9.688;2023-04-15T09:57:03;5.95;;;1.40;;
45043;SDS011;30784;48.490;9.688;2023-04-15T09:59:30;5.13;;;1.55;;
45043;SDS011;30784;48.490;9.688;2023-04-15T10:01:55;5.53;;;1.17;;
45043;SDS011;30784;48.490;9.688;2023-04-15T10:04:21;5.53;;;1.40;;
45043;SDS011;30784;48.490;9.688;2023-04-15T10:06:48;6.88;;;1.80;;
45043;SDS011;30784;48.490;9.688;2023-04-15T10:09:14;6.35;;;1.60;;
45043;SDS011;30784;48.490;9.688;2023-04-15T10:11:41;5.80;;;1.80;;
45043;SDS011;30784;48.490;9.688;2023-04-15T10:14:08;5.40;;;1.30;;
45043;SDS011;30784;48.490;9.688;2023-04-15T10:16:34;5.57;;;1.70;;
45043;SDS011;30784;48.490;9.688;2023-04-15T10:19:06;6.80;;;1.80;;
45043;SDS011;30784;48.490;9.688;2023-04-15T10:21:35;4.97;;;1.35;;
45043;SDS011;30784;48.490;9.688;2023-04-15T10:24:02;4.97;;;1.40;;
45043;SDS011;30784;48.490;9.688;2023-04-15T10:26:28;3.35;;;1.20;;
45043;SDS011;30784;48.490;9.688;2023-04-15T10:28:54;9.15;;;3.60;;
45043;SDS011;30784;48.490;9.688;2023-04-15T10:31:21;6.95;;;2.42;;
45043;SDS011;30784;48.490;9.688;2023-04-15T10:33:47;6.32;;;2.00;;
45043;SDS011;30784;48.490;9.688;2023-04-15T10:36:14;4.82;;;1.70;;
45043;SDS011;30784;48.490;9.688;2023-04-15T10:38:41;5.80;;;1.48;;
45043;SDS011;30784;48.490;9.688;2023-04-15T10:41:19;4.57;;;1.63;;
45043;SDS011;30784;48.490;9.688;2023-04-15T10:46:33;7.25;;;1.88;;
45043;SDS011;30784;48.490;9.688;2023-04-15T10:49:06;7.05;;;2.10;;
45043;SDS011;30784;48.490;9.688;2023-04-15T10:51:40;5.93;;;1.98;;
45043;SDS011;30784;48.490;9.688;2023-04-15T10:54:08;7.60;;;2.50;;
45043;SDS011;30784;48.490;9.688;2023-04-15T10:56:42;10.80;;;3.30;;
45043;SDS011;30784;48.490;9.688;2023-04-15T10:59:15;5.57;;;1.70;;
45043;SDS011;30784;48.490;9.688;2023-04-15T11:01:53;9.18;;;2.00;;
45043;SDS011;30784;48.490;9.688;2023-04-15T11:07:33;6.45;;;1.88;;
45043;SDS011;30784;48.490;9.688;2023-04-15T11:12:45;7.78;;;1.90;;
45043;SDS011;30784;48.490;9.688;2023-04-15T11:17:59;6.20;;;2.00;;
45043;SDS011;30784;48.490;9.688;2023-04-15T11:20:37;7.75;;;3.10;;
45043;SDS011;30784;48.490;9.688;2023-04-15T11:23:03;5.88;;;1.98;;
45043;SDS011;30784;48.490;9.688;2023-04-15T11:25:30;6.60;;;1.88;;
45043;SDS011;30784;48.490;9.688;2023-04-15T11:27:58;6.97;;;1.88;;
45043;SDS011;30784;48.490;9.688;2023-04-15T11:30:26;6.50;;;1.85;;
45043;SDS011;30784;48.490;9.688;2023-04-15T11:32:56;6.50;;;1.80;;
45043;SDS011;30784;48.490;9.688;2023-04-15T11:35:23;6.23;;;1.50;;
45043;SDS011;30784;48.490;9.688;2023-04-15T11:37:49;6.32;;;1.60;;
45043;SDS011;30784;48.490;9.688;2023-04-15T11:40:15;6.30;;;1.65;;
45043;SDS011;30784;48.490;9.688;2023-04-15T11:42:42;5.70;;;1.60;;
45043;SDS011;30784;48.490;9.688;2023-04-15T11:45:12;6.13;;;1.70;;
45043;SDS011;30784;48.490;9.688;2023-04-15T11:47:39;7.15;;;2.50;;
45043;SDS011;30784;48.490;9.688;2023-04-15T11:50:18;6.90;;;2.30;;
45043;SDS011;30784;48.490;9.688;2023-04-15T11:52:54;8.25;;;2.20;;
45043;SDS011;30784;48.490;9.688;2023-04-15T11:55:28;6.90;;;1.88;;
45043;SDS011;30784;48.490;9.688;2023-04-15T11:58:07;7.00;;;1.90;;
45043;SDS011;30784;48.490;9.688;2023-04-15T12:00:33;5.80;;;1.73;;
45043;SDS011;30784;48.490;9.688;2023-04-15T12:08:48;7.20;;;2.38;;
45043;SDS011;30784;48.490;9.688;2023-04-15T12:11:17;10.68;;;4.35;;
45043;SDS011;30784;48.490;9.688;2023-04-15T12:13:55;7.32;;;2.58;;
45043;SDS011;30784;48.490;9.688;2023-04-15T12:16:22;6.53;;;2.10;;
45043;SDS011;30784;48.490;9.688;2023-04-15T12:18:55;6.55;;;2.00;;
45043;SDS011;30784;48.490;9.688;2023-04-15T12:21:25;6.55;;;2.20;;
45043;SDS011;30784;48.490;9.688;2023-04-15T12:24:00;7.57;;;2.50;;
45043;SDS011;30784;48.490;9.688;2023-04-15T12:26:37;7.85;;;2.13;;
45043;SDS011;30784;48.490;9.688;2023-04-15T12:29:10;5.93;;;2.00;;
45043;SDS011;30784;48.490;9.688;2023-04-15T12:31:53;5.93;;;1.83;;
45043;SDS011;30784;48.490;9.688;2023-04-15T12:34:27;7.97;;;3.08;;
45043;SDS011;30784;48.490;9.688;2023-04-15T12:36:58;6.30;;;2.20;;
45043;SDS011;30784;48.490;9.688;2023-04-15T12:39:25;7.68;;;2.72;;
45043;SDS011;30784;48.490;9.688;2023-04-15T12:41:53;9.50;;;3.28;;
45043;SDS011;30784;48.490;9.688;2023-04-15T12:44:19;7.55;;;2.92;;
45043;SDS011;30784;48.490;9.688;2023-04-15T12:46:46;8.38;;;2.78;;
45043;SDS011;30784;48.490;9.688;2023-04-15T12:49:12;7.75;;;2.40;;
45043;SDS011;30784;48.490;9.688;2023-04-15T12:51:39;7.60;;;2.53;;
45043;SDS011;30784;48.490;9.688;2023-04-15T12:54:05;7.18;;;2.03;;
45043;SDS011;30784;48.490;9.688;2023-04-15T12:56:31;9.38;;;2.42;;
45043;SDS011;30784;48.490;9.688;2023-04-15T12:58:56;6.75;;;2.50;;
45043;SDS011;30784;48.490;9.688;2023-04-15T13:01:22;7.00;;;2.17;;
45043;SDS011;30784;48.490;9.688;2023-04-15T13:03:47;6.63;;;2.20;;
45043;SDS011;30784;48.490;9.688;2023-04-15T13:06:14;8.13;;;2.40;;
45043;SDS011;30784;48.490;9.688;2023-04-15T13:08:40;8.57;;;3.17;;
45043;SDS011;30784;48.490;9.688;2023-04-15T13:11:06;7.50;;;3.00;;
45043;SDS011;30784;48.490;9.688;2023-04-15T13:13:32;8.45;;;3.47;;
45043;SDS011;30784;48.490;9.688;2023-04-15T13:15:57;6.80;;;2.40;;
45043;SDS011;30784;48.490;9.688;2023-04-15T13:18:23;8.02;;;2.30;;
45043;SDS011;30784;48.490;9.688;2023-04-15T13:20:49;6.75;;;2.05;;
45043;SDS011;30784;48.490;9.688;2023-04-15T13:23:15;6.63;;;2.38;;
45043;SDS011;30784;48.490;9.688;2023-04-15T13:25:41;6.38;;;2.00;;
45043;SDS011;30784;48.490;9.688;2023-04-15T13:28:07;6.53;;;2.40;;
45043;SDS011;30784;48.490;9.688;2023-04-15T13:30:36;8.75;;;3.40;;
45043;SDS011;30784;48.490;9.688;2023-04-15T13:33:02;7.53;;;2.88;;
45043;SDS011;30784;48.490;9.688;2023-04-15T13:35:27;7.10;;;2.58;;
45043;SDS011;30784;48.490;9.688;2023-04-15T13:37:53;9.25;;;2.67;;
45043;SDS011;30784;48.490;9.688;2023-04-15T13:40:19;5.85;;;2.22;;
45043;SDS011;30784;48.490;9.688;2023-04-15T13:42:45;9.20;;;5.03;;
45043;SDS011;30784;48.490;9.688;2023-04-15T13:45:11;7.78;;;2.83;;
45043;SDS011;30784;48.490;9.688;2023-04-15T13:47:36;7.28;;;2.67;;
45043;SDS011;30784;48.490;9.688;2023-04-15T13:50:02;7.88;;;2.78;;
45043;SDS011;30784;48.490;9.688;2023-04-15T13:52:28;7.45;;;2.45;;
45043;SDS011;30784;48.490;9.688;2023-04-15T13:54:54;7.85;;;2.33;;
45043;SDS011;30784;48.490;9.688;2023-04-15T13:57:19;7.38;;;2.40;;
45043;SDS011;30784;48.490;9.688;2023-04-15T13:59:45;6.00;;;2.63;;
45043;SDS011;30784;48.490;9.688;2023-04-15T14:02:10;8.60;;;2.80;;
45043;SDS011;30784;48.490;9.688;2023-04-15T14:04:36;7.55;;;2.67;;
45043;SDS011;30784;48.490;9.688;2023-04-15T14:07:02;6.03;;;2.15;;
45043;SDS011;30784;48.490;9.688;2023-04-15T14:09:28;6.57;;;2.22;;
45043;SDS011;30784;48.490;9.688;2023-04-15T14:11:53;6.03;;;1.80;;
45043;SDS011;30784;48.490;9.688;2023-04-15T14:14:20;7.28;;;2.13;;
45043;SDS011;30784;48.490;9.688;2023-04-15T14:16:45;7.60;;;2.22;;
45043;SDS011;30784;48.490;9.688;2023-04-15T14:19:11;10.15;;;5.35;;
45043;SDS011;30784;48.490;9.688;2023-04-15T14:21:38;8.45;;;3.17;;
45043;SDS011;30784;48.490;9.688;2023-04-15T14:24:03;6.80;;;2.00;;
45043;SDS011;30784;48.490;9.688;2023-04-15T14:26:29;7.25;;;1.90;;
45043;SDS011;30784;48.490;9.688;2023-04-15T14:28:55;6.35;;;1.98;;
45043;SDS011;30784;48.490;9.688;2023-04-15T14:31:20;6.50;;;1.90;;
45043;SDS011;30784;48.490;9.688;2023-04-15T14:33:46;6.00;;;2.10;;
45043;SDS011;30784;48.490;9.688;2023-04-15T14:36:11;6.18;;;2.15;;
45043;SDS011;30784;48.490;9.688;2023-04-15T14:38:37;6.95;;;2.13;;
45043;SDS011;30784;48.490;9.688;2023-04-15T14:41:04;7.35;;;2.47;;
45043;SDS011;30784;48.490;9.688;2023-04-15T14:43:30;7.45;;;2.80;;
45043;SDS011;30784;48.490;9.688;2023-04-15T14:45:55;6.97;;;2.15;;
45043;SDS011;30784;48.490;9.688;2023-04-15T14:48:21;7.15;;;1.90;;
45043;SDS011;30784;48.490;9.688;2023-04-15T14:50:46;5.20;;;1.38;;
45043;SDS011;30784;48.490;9.688;2023-04-15T14:53:12;5.78;;;1.55;;
45043;SDS011;30784;48.490;9.688;2023-04-15T14:55:37;4.75;;;1.40;;
45043;SDS011;30784;48.490;9.688;2023-04-15T14:58:03;4.45;;;1.20;;
45043;SDS011;30784;48.490;9.688;2023-04-15T15:00:29;4.00;;;1.10;;
45043;SDS011;30784;48.490;9.688;2023-04-15T15:02:55;3.95;;;1.10;;
45043;SDS011;30784;48.490;9.688;2023-04-15T15:05:21;3.90;;;1.20;;
45043;SDS011;30784;48.490;9.688;2023-04-15T15:07:46;6.88;;;2.55;;
45043;SDS011;30784;48.490;9.688;2023-04-15T15:10:12;8.35;;;2.60;;